sensor_id;sensor_type;location;lat;lon;timestamp;P1;durP1;ratioP1;P2;durP2;ratioP2
63218;SDS011;49320;52.512;13.448;2022-12-29T00:01:43;1.73;;;1.13;;
63218;SDS011;49320;52.512;13.448;2022-12-29T00:04:11;1.77;;;1.27;;
63218;SDS011;49320;52.512;13.448;2022-12-29T00:06:42;1.60;;;1.20;;
63218;SDS011;49320;52.512;13.448;2022-12-29T00:09:10;1.00;;;0.90;;
63218;SDS011;49320;52.512;13.448;2022-12-29T00:11:38;1.73;;;1.30;;
63218;SDS011;49320;52.512;13.448;2022-12-29T00:14:06;2.65;;;1.42;;
63218;SDS011;49320;52.512;13.448;2022-12-29T00:16:54;2.22;;;1.30;;
63218;SDS011;49320;52.512;13.448;2022-12-29T00:19:21;2.30;;;1.48;;
63218;SDS011;49320;52.512;13.448;2022-12-29T00:22:09;2.45;;;1.20;;
63218;SDS011;49320;52.512;13.448;2022-12-29T00:24:57;2.15;;;1.02;;
63218;SDS011;49320;52.512;13.448;2022-12-29T00:27:43;2.28;;;1.25;;
63218;SDS011;49320;52.512;13.448;2022-12-29T00:30:33;2.15;;;1.23;;
63218;SDS011;49320;52.512;13.448;2022-12-29T00:33:20;1.88;;;1.35;;
63218;SDS011;49320;52.512;13.448;2022-12-29T00:36:25;1.92;;;1.55;;
63218;SDS011;49320;52.512;13.448;2022-12-29T00:39:03;2.13;;;1.20;;
63218;SDS011;49320;52.512;13.448;2022-12-29T00:41:56;1.85;;;1.30;;
63218;SDS011;49320;52.512;13.448;2022-12-29T00:44:48;1.83;;;1.30;;
63218;SDS011;49320;52.512;13.448;2022-12-29T00:47:14;1.98;;;1.30;;
63218;SDS011;49320;52.512;13.448;2022-12-29T00:49:43;2.45;;;1.50;;
63218;SDS011;49320;52.512;13.448;2022-12-29T00:52:12;2.10;;;1.50;;
63218;SDS011;49320;52.512;13.448;2022-12-29T00:54:40;2.45;;;1.15;;
63218;SDS011;49320;52.512;13.448;2022-12-29T00:57:10;2.75;;;1.58;;
63218;SDS011;49320;52.512;13.448;2022-12-29T00:59:39;1.77;;;1.10;;
63218;SDS011;49320;52.512;13.448;2022-12-29T01:02:07;1.48;;;1.23;;
63218;SDS011;49320;52.512;13.448;2022-12-29T01:04:35;1.73;;;1.20;;
63218;SDS011;49320;52.512;13.448;2022-12-29T01:07:02;1.75;;;1.17;;
63218;SDS011;49320;52.512;13.448;2022-12-29T01:09:29;1.50;;;1.10;;
63218;SDS011;49320;52.512;13.448;2022-12-29T01:12:16;1.77;;;1.33;;
63218;SDS011;49320;52.512;13.448;2022-12-29T01:14:43;2.15;;;1.60;;
63218;SDS011;49320;52.512;13.448;2022-12-29T01:17:10;2.13;;;1.05;;
63218;SDS011;49320;52.512;13.448;2022-12-29T01:19:37;1.70;;;1.02;;
63218;SDS011;49320;52.512;13.448;2022-12-29T01:22:03;2.42;;;1.38;;
63218;SDS011;49320;52.512;13.448;2022-12-29T01:24:30;1.73;;;1.30;;
63218;SDS011;49320;52.512;13.448;2022-12-29T01:26:57;1.70;;;1.10;;
63218;SDS011;49320;52.512;13.448;2022-12-29T01:29:24;1.85;;;1.20;;
63218;SDS011;49320;52.512;13.448;2022-12-29T01:31:51;1.45;;;0.95;;
63218;SDS011;49320;52.512;13.448;2022-12-29T01:34:17;4.90;;;1.20;;
63218;SDS011;49320;52.512;13.448;2022-12-29T01:36:44;1.58;;;1.10;;
63218;SDS011;49320;52.512;13.448;2022-12-29T01:39:11;1.42;;;1.13;;
63218;SDS011;49320;52.512;13.448;2022-12-29T01:41:39;1.65;;;1.20;;
63218;SDS011;49320;52.512;13.448;2022-12-29T01:47:22;1.70;;;1.10;;
63218;SDS011;49320;52.512;13.448;2022-12-29T01:49:55;1.92;;;1.15;;
63218;SDS011;49320;52.512;13.448;2022-12-29T01:52:27;1.50;;;1.08;;
63218;SDS011;49320;52.512;13.448;2022-12-29T01:54:59;1.85;;;1.15;;
63218;SDS011;49320;52.512;13.448;2022-12-29T01:57:30;1.70;;;1.15;;
63218;SDS011;49320;52.512;13.448;2022-12-29T02:00:07;3.13;;;1.40;;
63218;SDS011;49320;52.512;13.448;2022-12-29T02:02:40;1.55;;;1.35;;
63218;SDS011;49320;52.512;13.448;2022-12-29T02:05:18;1.23;;;1.03;;
63218;SDS011;49320;52.512;13.448;2022-12-29T02:07:54;1.40;;;1.10;;
63218;SDS011;49320;52.512;13.448;2022-12-29T02:10:21;1.52;;;1.17;;
63218;SDS011;49320;52.512;13.448;2022-12-29T02:12:53;2.35;;;1.17;;
63218;SDS011;49320;52.512;13.448;2022-12-29T02:15:22;1.92;;;1.15;;
63218;SDS011;49320;52.512;13.448;2022-12-29T02:21:30;2.40;;;1.08;;
63218;SDS011;49320;52.512;13.448;2022-12-29T02:24:32;1.85;;;1.40;;
63218;SDS011;49320;52.512;13.448;2022-12-29T02:36:50;2.60;;;1.50;;
63218;SDS011;49320;52.512;13.448;2022-12-29T02:39:44;1.92;;;1.30;;
63218;SDS011;49320;52.512;13.448;2022-12-29T02:45:08;1.55;;;1.17;;
63218;SDS011;49320;52.512;13.448;2022-12-29T02:47:50;2.40;;;1.15;;
63218;SDS011;49320;52.512;13.448;2022-12-29T02:50:44;1.88;;;1.20;;
63218;SDS011;49320;52.512;13.448;2022-12-29T02:53:49;1.60;;;1.10;;
63218;SDS011;49320;52.512;13.448;2022-12-29T02:56:51;1.25;;;1.00;;
63218;SDS011;49320;52.512;13.448;2022-12-29T02:59:18;1.30;;;0.95;;
63218;SDS011;49320;52.512;13.448;2022-12-29T03:11:11;1.92;;;1.20;;
63218;SDS011;49320;52.512;13.448;2022-12-29T03:14:02;1.50;;;1.10;;
63218;SDS011;49320;52.512;13.448;2022-12-29T03:17:16;5.18;;;1.20;;
63218;SDS011;49320;52.512;13.448;2022-12-29T03:19:59;2.03;;;1.20;;
63218;SDS011;49320;52.512;13.448;2022-12-29T03:22:35;1.10;;;1.00;;
63218;SDS011;49320;52.512;13.448;2022-12-29T03:25:10;1.40;;;1.00;;
63218;SDS011;49320;52.512;13.448;2022-12-29T03:28:00;1.73;;;1.13;;
63218;SDS011;49320;52.512;13.448;2022-12-29T03:30:33;1.92;;;1.00;;
63218;SDS011;49320;52.512;13.448;2022-12-29T03:33:04;1.58;;;1.10;;
63218;SDS011;49320;52.512;13.448;2022-12-29T03:35:35;2.28;;;1.08;;
63218;SDS011;49320;52.512;13.448;2022-12-29T03:38:11;1.70;;;1.15;;
63218;SDS011;49320;52.512;13.448;2022-12-29T03:40:44;1.23;;;1.10;;
63218;SDS011;49320;52.512;13.448;2022-12-29T03:43:16;2.47;;;0.98;;
63218;SDS011;49320;52.512;13.448;2022-12-29T03:45:44;1.20;;;0.90;;
63218;SDS011;49320;52.512;13.448;2022-12-29T03:48:11;1.30;;;1.20;;
63218;SDS011;49320;52.512;13.448;2022-12-29T03:50:37;1.60;;;0.90;;
63218;SDS011;49320;52.512;13.448;2022-12-29T03:53:04;1.10;;;0.98;;
63218;SDS011;49320;52.512;13.448;2022-12-29T03:55:31;1.15;;;1.05;;
63218;SDS011;49320;52.512;13.448;2022-12-29T03:57:58;1.90;;;1.00;;
63218;SDS011;49320;52.512;13.448;2022-12-29T04:00:25;1.42;;;1.00;;
63218;SDS011;49320;52.512;13.448;2022-12-29T04:02:52;1.20;;;1.10;;
63218;SDS011;49320;52.512;13.448;2022-12-29T04:05:19;3.03;;;1.30;;
63218;SDS011;49320;52.512;13.448;2022-12-29T04:07:47;2.33;;;1.10;;
63218;SDS011;49320;52.512;13.448;2022-12-29T04:10:13;1.30;;;1.00;;
63218;SDS011;49320;52.512;13.448;2022-12-29T04:12:41;1.48;;;1.02;;
63218;SDS011;49320;52.512;13.448;2022-12-29T04:15:08;1.45;;;1.05;;
63218;SDS011;49320;52.512;13.448;2022-12-29T04:17:36;1.10;;;1.00;;
63218;SDS011;49320;52.512;13.448;2022-12-29T04:20:03;1.45;;;1.20;;
63218;SDS011;49320;52.512;13.448;2022-12-29T04:22:49;1.95;;;1.15;;
63218;SDS011;49320;52.512;13.448;2022-12-29T04:25:24;0.93;;;0.80;;
63218;SDS011;49320;52.512;13.448;2022-12-29T04:27:51;1.88;;;1.08;;
63218;SDS011;49320;52.512;13.448;2022-12-29T04:30:18;2.00;;;1.13;;
63218;SDS011;49320;52.512;13.448;2022-12-29T04:32:45;1.50;;;1.20;;
63218;SDS011;49320;52.512;13.448;2022-12-29T04:35:11;1.60;;;1.20;;
63218;SDS011;49320;52.512;13.448;2022-12-29T04:37:38;2.78;;;1.10;;
63218;SDS011;49320;52.512;13.448;2022-12-29T04:40:05;2.28;;;1.23;;
63218;SDS011;49320;52.512;13.448;2022-12-29T04:42:33;1.10;;;1.00;;
63218;SDS011;49320;52.512;13.448;2022-12-29T04:44:59;1.58;;;0.93;;
63218;SDS011;49320;52.512;13.448;2022-12-29T04:47:26;2.33;;;1.40;;
63218;SDS011;49320;52.512;13.448;2022-12-29T04:49:53;1.27;;;1.05;;
63218;SDS011;49320;52.512;13.448;2022-12-29T04:52:20;2.25;;;1.10;;
63218;SDS011;49320;52.512;13.448;2022-12-29T04:54:46;2.13;;;1.20;;
63218;SDS011;49320;52.512;13.448;2022-12-29T04:57:13;1.13;;;1.02;;
63218;SDS011;49320;52.512;13.448;2022-12-29T04:59:40;2.70;;;1.25;;
63218;SDS011;49320;52.512;13.448;2022-12-29T05:02:07;2.00;;;1.25;;
63218;SDS011;49320;52.512;13.448;2022-12-29T05:04:34;1.30;;;1.20;;
63218;SDS011;49320;52.512;13.448;2022-12-29T05:07:01;1.33;;;1.23;;
63218;SDS011;49320;52.512;13.448;2022-12-29T05:09:28;1.20;;;1.08;;
63218;SDS011;49320;52.512;13.448;2022-12-29T05:11:55;1.60;;;1.20;;
63218;SDS011;49320;52.512;13.448;2022-12-29T05:14:22;2.13;;;1.48;;
63218;SDS011;49320;52.512;13.448;2022-12-29T05:16:49;3.20;;;1.40;;
63218;SDS011;49320;52.512;13.448;2022-12-29T05:19:16;1.92;;;1.40;;
63218;SDS011;49320;52.512;13.448;2022-12-29T05:21:43;2.75;;;1.20;;
63218;SDS011;49320;52.512;13.448;2022-12-29T05:24:10;1.92;;;1.08;;
63218;SDS011;49320;52.512;13.448;2022-12-29T05:26:37;1.13;;;1.00;;
63218;SDS011;49320;52.512;13.448;2022-12-29T05:29:04;2.22;;;1.45;;
63218;SDS011;49320;52.512;13.448;2022-12-29T05:31:30;2.13;;;1.30;;
63218;SDS011;49320;52.512;13.448;2022-12-29T05:33:57;1.20;;;1.10;;
63218;SDS011;49320;52.512;13.448;2022-12-29T05:36:24;1.58;;;1.00;;
63218;SDS011;49320;52.512;13.448;2022-12-29T05:38:51;1.23;;;1.10;;
63218;SDS011;49320;52.512;13.448;2022-12-29T05:41:18;1.10;;;1.00;;
63218;SDS011;49320;52.512;13.448;2022-12-29T05:43:45;1.83;;;1.25;;
63218;SDS011;49320;52.512;13.448;2022-12-29T05:46:12;1.23;;;0.90;;
63218;SDS011;49320;52.512;13.448;2022-12-29T05:48:39;1.48;;;1.30;;
63218;SDS011;49320;52.512;13.448;2022-12-29T05:51:06;1.73;;;1.08;;
63218;SDS011;49320;52.512;13.448;2022-12-29T05:53:33;1.40;;;0.80;;
63218;SDS011;49320;52.512;13.448;2022-12-29T05:55:59;1.50;;;1.20;;
63218;SDS011;49320;52.512;13.448;2022-12-29T05:58:26;1.42;;;1.05;;
63218;SDS011;49320;52.512;13.448;2022-12-29T06:00:53;3.22;;;1.40;;
63218;SDS011;49320;52.512;13.448;2022-12-29T06:03:20;1.58;;;1.20;;
63218;SDS011;49320;52.512;13.448;2022-12-29T06:05:47;1.75;;;1.10;;
63218;SDS011;49320;52.512;13.448;2022-12-29T06:08:14;1.30;;;1.05;;
63218;SDS011;49320;52.512;13.448;2022-12-29T06:10:41;1.90;;;1.40;;
63218;SDS011;49320;52.512;13.448;2022-12-29T06:13:08;1.63;;;1.10;;
63218;SDS011;49320;52.512;13.448;2022-12-29T06:15:35;2.17;;;1.00;;
63218;SDS011;49320;52.512;13.448;2022-12-29T06:18:02;1.00;;;0.90;;
63218;SDS011;49320;52.512;13.448;2022-12-29T06:20:29;1.17;;;1.00;;
63218;SDS011;49320;52.512;13.448;2022-12-29T06:22:56;1.40;;;1.10;;
63218;SDS011;49320;52.512;13.448;2022-12-29T06:25:22;2.00;;;1.30;;
63218;SDS011;49320;52.512;13.448;2022-12-29T06:27:49;1.10;;;1.00;;
63218;SDS011;49320;52.512;13.448;2022-12-29T06:30:16;1.30;;;0.95;;
63218;SDS011;49320;52.512;13.448;2022-12-29T06:32:43;1.15;;;1.00;;
63218;SDS011;49320;52.512;13.448;2022-12-29T06:35:10;1.52;;;1.17;;
63218;SDS011;49320;52.512;13.448;2022-12-29T06:37:37;2.28;;;1.02;;
63218;SDS011;49320;52.512;13.448;2022-12-29T06:40:04;1.23;;;0.90;;
63218;SDS011;49320;52.512;13.448;2022-12-29T06:42:32;1.42;;;1.17;;
63218;SDS011;49320;52.512;13.448;2022-12-29T06:44:59;1.33;;;1.00;;
63218;SDS011;49320;52.512;13.448;2022-12-29T06:47:26;2.55;;;1.33;;
63218;SDS011;49320;52.512;13.448;2022-12-29T06:49:53;1.98;;;1.20;;
63218;SDS011;49320;52.512;13.448;2022-12-29T06:52:20;1.05;;;0.98;;
63218;SDS011;49320;52.512;13.448;2022-12-29T06:54:47;1.33;;;1.20;;
63218;SDS011;49320;52.512;13.448;2022-12-29T06:57:13;2.10;;;1.23;;
63218;SDS011;49320;52.512;13.448;2022-12-29T06:59:40;1.73;;;1.30;;
63218;SDS011;49320;52.512;13.448;2022-12-29T07:02:09;2.35;;;1.10;;
63218;SDS011;49320;52.512;13.448;2022-12-29T07:04:37;1.30;;;1.05;;
63218;SDS011;49320;52.512;13.448;2022-12-29T07:07:04;1.80;;;0.82;;
63218;SDS011;49320;52.512;13.448;2022-12-29T07:09:31;1.33;;;0.98;;
63218;SDS011;49320;52.512;13.448;2022-12-29T07:11:58;1.30;;;1.00;;
63218;SDS011;49320;52.512;13.448;2022-12-29T07:14:26;1.00;;;0.80;;
63218;SDS011;49320;52.512;13.448;2022-12-29T07:16:53;1.98;;;1.02;;
63218;SDS011;49320;52.512;13.448;2022-12-29T07:19:20;1.73;;;1.35;;
63218;SDS011;49320;52.512;13.448;2022-12-29T07:21:47;1.40;;;1.20;;
63218;SDS011;49320;52.512;13.448;2022-12-29T07:24:14;2.13;;;1.20;;
63218;SDS011;49320;52.512;13.448;2022-12-29T07:26:40;1.30;;;1.10;;
63218;SDS011;49320;52.512;13.448;2022-12-29T07:29:07;1.58;;;1.33;;
63218;SDS011;49320;52.512;13.448;2022-12-29T07:31:34;1.60;;;1.20;;
63218;SDS011;49320;52.512;13.448;2022-12-29T07:34:01;2.22;;;1.30;;
63218;SDS011;49320;52.512;13.448;2022-12-29T07:36:28;1.25;;;1.00;;
63218;SDS011;49320;52.512;13.448;2022-12-29T07:38:59;1.30;;;1.20;;
63218;SDS011;49320;52.512;13.448;2022-12-29T07:41:27;1.55;;;1.20;;
63218;SDS011;49320;52.512;13.448;2022-12-29T07:43:54;3.72;;;1.40;;
63218;SDS011;49320;52.512;13.448;2022-12-29T07:46:21;2.65;;;1.75;;
63218;SDS011;49320;52.512;13.448;2022-12-29T07:49:07;1.88;;;1.40;;
63218;SDS011;49320;52.512;13.448;2022-12-29T07:51:34;3.33;;;1.80;;
63218;SDS011;49320;52.512;13.448;2022-12-29T07:54:01;2.10;;;1.90;;
63218;SDS011;49320;52.512;13.448;2022-12-29T07:56:28;1.40;;;1.30;;
63218;SDS011;49320;52.512;13.448;2022-12-29T07:58:55;1.90;;;1.20;;
63218;SDS011;49320;52.512;13.448;2022-12-29T08:01:21;1.20;;;1.10;;
63218;SDS011;49320;52.512;13.448;2022-12-29T08:03:49;1.52;;;1.10;;
63218;SDS011;49320;52.512;13.448;2022-12-29T08:06:22;2.15;;;1.25;;
63218;SDS011;49320;52.512;13.448;2022-12-29T08:08:49;2.03;;;1.30;;
63218;SDS011;49320;52.512;13.448;2022-12-29T08:11:15;1.10;;;1.00;;
63218;SDS011;49320;52.512;13.448;2022-12-29T08:13:42;1.63;;;0.93;;
63218;SDS011;49320;52.512;13.448;2022-12-29T08:16:09;1.90;;;1.20;;
63218;SDS011;49320;52.512;13.448;2022-12-29T08:18:37;1.63;;;1.08;;
63218;SDS011;49320;52.512;13.448;2022-12-29T08:21:04;1.70;;;1.10;;
63218;SDS011;49320;52.512;13.448;2022-12-29T08:23:32;1.27;;;0.80;;
63218;SDS011;49320;52.512;13.448;2022-12-29T08:26:03;1.92;;;1.35;;
63218;SDS011;49320;52.512;13.448;2022-12-29T08:28:32;1.10;;;1.00;;
63218;SDS011;49320;52.512;13.448;2022-12-29T08:31:00;3.25;;;1.50;;
63218;SDS011;49320;52.512;13.448;2022-12-29T08:33:28;3.28;;;1.30;;
63218;SDS011;49320;52.512;13.448;2022-12-29T08:36:02;1.38;;;1.17;;
63218;SDS011;49320;52.512;13.448;2022-12-29T08:38:32;2.05;;;1.10;;
63218;SDS011;49320;52.512;13.448;2022-12-29T08:40:59;1.77;;;1.38;;
63218;SDS011;49320;52.512;13.448;2022-12-29T08:43:27;2.95;;;1.20;;
63218;SDS011;49320;52.512;13.448;2022-12-29T08:45:55;1.95;;;1.30;;
63218;SDS011;49320;52.512;13.448;2022-12-29T08:48:23;1.48;;;1.08;;
63218;SDS011;49320;52.512;13.448;2022-12-29T08:50:51;2.40;;;1.15;;
63218;SDS011;49320;52.512;13.448;2022-12-29T08:53:18;1.35;;;1.00;;
63218;SDS011;49320;52.512;13.448;2022-12-29T08:55:46;1.13;;;1.00;;
63218;SDS011;49320;52.512;13.448;2022-12-29T08:58:27;2.75;;;1.10;;
63218;SDS011;49320;52.512;13.448;2022-12-29T09:00:54;1.50;;;1.15;;
63218;SDS011;49320;52.512;13.448;2022-12-29T09:03:25;2.13;;;1.15;;
63218;SDS011;49320;52.512;13.448;2022-12-29T09:06:13;1.95;;;1.25;;
63218;SDS011;49320;52.512;13.448;2022-12-29T09:08:43;1.23;;;1.10;;
63218;SDS011;49320;52.512;13.448;2022-12-29T09:13:44;1.77;;;1.10;;
63218;SDS011;49320;52.512;13.448;2022-12-29T09:16:12;2.03;;;0.95;;
63218;SDS011;49320;52.512;13.448;2022-12-29T09:18:39;1.95;;;1.23;;
63218;SDS011;49320;52.512;13.448;2022-12-29T09:21:06;1.38;;;1.25;;
63218;SDS011;49320;52.512;13.448;2022-12-29T09:23:33;1.63;;;1.10;;
63218;SDS011;49320;52.512;13.448;2022-12-29T09:26:00;2.70;;;1.10;;
63218;SDS011;49320;52.512;13.448;2022-12-29T09:28:28;2.90;;;1.33;;
63218;SDS011;49320;52.512;13.448;2022-12-29T09:30:57;3.05;;;1.38;;
63218;SDS011;49320;52.512;13.448;2022-12-29T09:33:24;2.42;;;1.67;;
63218;SDS011;49320;52.512;13.448;2022-12-29T09:35:52;2.75;;;1.63;;
63218;SDS011;49320;52.512;13.448;2022-12-29T09:38:22;1.88;;;1.30;;
63218;SDS011;49320;52.512;13.448;2022-12-29T09:40:52;1.95;;;1.52;;
63218;SDS011;49320;52.512;13.448;2022-12-29T09:46:28;1.58;;;1.10;;
63218;SDS011;49320;52.512;13.448;2022-12-29T09:49:07;1.30;;;1.20;;
63218;SDS011;49320;52.512;13.448;2022-12-29T09:52:09;1.58;;;0.90;;
63218;SDS011;49320;52.512;13.448;2022-12-29T10:01:12;1.40;;;0.90;;
63218;SDS011;49320;52.512;13.448;2022-12-29T10:04:07;1.88;;;1.30;;
63218;SDS011;49320;52.512;13.448;2022-12-29T10:12:41;1.73;;;1.20;;
63218;SDS011;49320;52.512;13.448;2022-12-29T10:15:33;2.05;;;1.05;;
63218;SDS011;49320;52.512;13.448;2022-12-29T10:18:48;1.92;;;0.88;;
63218;SDS011;49320;52.512;13.448;2022-12-29T10:24:29;1.73;;;0.90;;
63218;SDS011;49320;52.512;13.448;2022-12-29T10:27:00;1.77;;;1.00;;
63218;SDS011;49320;52.512;13.448;2022-12-29T10:29:33;1.58;;;1.00;;
63218;SDS011;49320;52.512;13.448;2022-12-29T10:32:29;1.50;;;0.98;;
63218;SDS011;49320;52.512;13.448;2022-12-29T10:35:19;1.40;;;0.90;;
63218;SDS011;49320;52.512;13.448;2022-12-29T10:37:57;3.33;;;1.10;;
63218;SDS011;49320;52.512;13.448;2022-12-29T10:40:50;1.15;;;0.88;;
63218;SDS011;49320;52.512;13.448;2022-12-29T10:43:37;1.52;;;1.10;;
63218;SDS011;49320;52.512;13.448;2022-12-29T10:46:14;1.35;;;1.05;;
63218;SDS011;49320;52.512;13.448;2022-12-29T10:48:47;2.20;;;1.10;;
63218;SDS011;49320;52.512;13.448;2022-12-29T10:51:18;1.75;;;1.00;;
63218;SDS011;49320;52.512;13.448;2022-12-29T10:56:35;1.27;;;0.98;;
63218;SDS011;49320;52.512;13.448;2022-12-29T10:59:16;1.00;;;0.95;;
63218;SDS011;49320;52.512;13.448;2022-12-29T11:08:09;1.85;;;1.10;;
63218;SDS011;49320;52.512;13.448;2022-12-29T11:10:44;1.58;;;1.00;;
63218;SDS011;49320;52.512;13.448;2022-12-29T11:13:14;1.83;;;1.08;;
63218;SDS011;49320;52.512;13.448;2022-12-29T11:15:52;1.45;;;1.08;;
63218;SDS011;49320;52.512;13.448;2022-12-29T11:18:20;1.27;;;0.85;;
63218;SDS011;49320;52.512;13.448;2022-12-29T11:20:58;1.80;;;1.10;;
63218;SDS011;49320;52.512;13.448;2022-12-29T11:28:34;2.58;;;1.02;;
63218;SDS011;49320;52.512;13.448;2022-12-29T11:31:02;5.70;;;1.15;;
63218;SDS011;49320;52.512;13.448;2022-12-29T11:33:33;1.95;;;1.10;;
63218;SDS011;49320;52.512;13.448;2022-12-29T11:36:10;3.05;;;0.90;;
63218;SDS011;49320;52.512;13.448;2022-12-29T11:38:49;1.90;;;0.88;;
63218;SDS011;49320;52.512;13.448;2022-12-29T11:41:23;2.65;;;1.20;;
63218;SDS011;49320;52.512;13.448;2022-12-29T11:43:53;1.80;;;1.10;;
63218;SDS011;49320;52.512;13.448;2022-12-29T11:46:27;2.33;;;1.00;;
63218;SDS011;49320;52.512;13.448;2022-12-29T11:51:29;1.80;;;0.70;;
63218;SDS011;49320;52.512;13.448;2022-12-29T11:54:03;2.67;;;0.90;;
63218;SDS011;49320;52.512;13.448;2022-12-29T11:56:33;0.80;;;0.80;;
63218;SDS011;49320;52.512;13.448;2022-12-29T11:59:50;1.75;;;0.85;;
63218;SDS011;49320;52.512;13.448;2022-12-29T12:02:50;1.00;;;0.90;;
63218;SDS011;49320;52.512;13.448;2022-12-29T12:05:13;1.88;;;0.90;;
63218;SDS011;49320;52.512;13.448;2022-12-29T12:08:10;1.33;;;0.82;;
63218;SDS011;49320;52.512;13.448;2022-12-29T12:10:50;1.30;;;0.70;;
63218;SDS011;49320;52.512;13.448;2022-12-29T12:13:31;1.35;;;0.85;;
63218;SDS011;49320;52.512;13.448;2022-12-29T12:16:12;1.13;;;0.82;;
63218;SDS011;49320;52.512;13.448;2022-12-29T12:18:52;1.60;;;0.88;;
63218;SDS011;49320;52.512;13.448;2022-12-29T12:21:38;1.52;;;0.80;;
63218;SDS011;49320;52.512;13.448;2022-12-29T12:24:32;1.70;;;0.90;;
63218;SDS011;49320;52.512;13.448;2022-12-29T12:27:24;1.77;;;1.17;;
63218;SDS011;49320;52.512;13.448;2022-12-29T12:30:22;1.00;;;0.93;;
63218;SDS011;49320;52.512;13.448;2022-12-29T12:35:32;1.52;;;0.80;;
63218;SDS011;49320;52.512;13.448;2022-12-29T12:47:36;1.58;;;1.10;;
63218;SDS011;49320;52.512;13.448;2022-12-29T12:55:49;1.90;;;1.10;;
63218;SDS011;49320;52.512;13.448;2022-12-29T12:58:42;2.92;;;0.90;;
63218;SDS011;49320;52.512;13.448;2022-12-29T13:01:38;1.63;;;0.90;;
63218;SDS011;49320;52.512;13.448;2022-12-29T13:04:30;1.80;;;1.02;;
63218;SDS011;49320;52.512;13.448;2022-12-29T13:07:16;1.10;;;0.82;;
63218;SDS011;49320;52.512;13.448;2022-12-29T13:12:58;1.00;;;0.90;;
63218;SDS011;49320;52.512;13.448;2022-12-29T13:18:59;2.63;;;1.10;;
63218;SDS011;49320;52.512;13.448;2022-12-29T13:27:51;2.05;;;1.30;;
63218;SDS011;49320;52.512;13.448;2022-12-29T13:30:55;1.73;;;1.05;;
63218;SDS011;49320;52.512;13.448;2022-12-29T13:36:26;2.33;;;1.40;;
63218;SDS011;49320;52.512;13.448;2022-12-29T13:39:03;1.65;;;1.17;;
63218;SDS011;49320;52.512;13.448;2022-12-29T13:41:49;1.48;;;0.98;;
63218;SDS011;49320;52.512;13.448;2022-12-29T13:44:23;1.20;;;0.98;;
63218;SDS011;49320;52.512;13.448;2022-12-29T13:47:04;4.07;;;1.05;;
63218;SDS011;49320;52.512;13.448;2022-12-29T13:49:57;1.70;;;1.30;;
63218;SDS011;49320;52.512;13.448;2022-12-29T14:01:10;1.55;;;0.90;;
63218;SDS011;49320;52.512;13.448;2022-12-29T14:06:26;1.52;;;1.30;;
63218;SDS011;49320;52.512;13.448;2022-12-29T14:09:03;2.03;;;1.13;;
63218;SDS011;49320;52.512;13.448;2022-12-29T14:11:33;1.85;;;1.35;;
63218;SDS011;49320;52.512;13.448;2022-12-29T14:14:13;1.67;;;1.10;;
63218;SDS011;49320;52.512;13.448;2022-12-29T14:16:49;3.53;;;1.20;;
63218;SDS011;49320;52.512;13.448;2022-12-29T14:19:24;2.08;;;1.65;;
63218;SDS011;49320;52.512;13.448;2022-12-29T14:21:58;2.25;;;1.25;;
63218;SDS011;49320;52.512;13.448;2022-12-29T14:26:59;1.48;;;1.25;;
63218;SDS011;49320;52.512;13.448;2022-12-29T14:31:56;1.40;;;1.10;;
63218;SDS011;49320;52.512;13.448;2022-12-29T14:34:26;1.42;;;1.08;;
63218;SDS011;49320;52.512;13.448;2022-12-29T14:37:02;2.60;;;1.20;;
63218;SDS011;49320;52.512;13.448;2022-12-29T14:39:34;1.48;;;1.20;;
63218;SDS011;49320;52.512;13.448;2022-12-29T14:47:43;2.97;;;1.20;;
63218;SDS011;49320;52.512;13.448;2022-12-29T14:58:28;1.40;;;1.20;;
63218;SDS011;49320;52.512;13.448;2022-12-29T15:00:58;2.45;;;1.60;;
63218;SDS011;49320;52.512;13.448;2022-12-29T15:03:31;1.80;;;1.50;;
63218;SDS011;49320;52.512;13.448;2022-12-29T15:06:09;3.58;;;1.73;;
63218;SDS011;49320;52.512;13.448;2022-12-29T15:08:50;2.83;;;1.50;;
63218;SDS011;49320;52.512;13.448;2022-12-29T15:16:53;3.88;;;2.45;;
63218;SDS011;49320;52.512;13.448;2022-12-29T15:19:24;3.60;;;2.45;;
63218;SDS011;49320;52.512;13.448;2022-12-29T15:21:53;3.28;;;2.20;;
63218;SDS011;49320;52.512;13.448;2022-12-29T15:24:22;4.07;;;1.95;;
63218;SDS011;49320;52.512;13.448;2022-12-29T15:26:50;3.22;;;1.73;;
63218;SDS011;49320;52.512;13.448;2022-12-29T15:34:44;2.72;;;1.48;;
63218;SDS011;49320;52.512;13.448;2022-12-29T15:37:19;2.78;;;1.63;;
63218;SDS011;49320;52.512;13.448;2022-12-29T15:40:19;3.05;;;1.30;;
63218;SDS011;49320;52.512;13.448;2022-12-29T15:45:46;1.63;;;1.50;;
63218;SDS011;49320;52.512;13.448;2022-12-29T15:48:18;2.22;;;1.75;;
63218;SDS011;49320;52.512;13.448;2022-12-29T15:50:49;2.58;;;1.70;;
63218;SDS011;49320;52.512;13.448;2022-12-29T15:53:27;3.42;;;2.03;;
63218;SDS011;49320;52.512;13.448;2022-12-29T15:55:58;3.22;;;2.25;;
63218;SDS011;49320;52.512;13.448;2022-12-29T15:58:43;3.13;;;2.13;;
63218;SDS011;49320;52.512;13.448;2022-12-29T16:01:18;3.47;;;2.00;;
63218;SDS011;49320;52.512;13.448;2022-12-29T16:03:49;2.97;;;2.17;;
63218;SDS011;49320;52.512;13.448;2022-12-29T16:09:04;6.32;;;2.28;;
63218;SDS011;49320;52.512;13.448;2022-12-29T16:11:39;3.83;;;2.37;;
63218;SDS011;49320;52.512;13.448;2022-12-29T16:14:20;3.70;;;2.53;;
63218;SDS011;49320;52.512;13.448;2022-12-29T16:17:09;2.85;;;2.08;;
63218;SDS011;49320;52.512;13.448;2022-12-29T16:19:42;2.90;;;2.17;;
63218;SDS011;49320;52.512;13.448;2022-12-29T16:22:24;3.17;;;2.10;;
63218;SDS011;49320;52.512;13.448;2022-12-29T16:27:48;3.20;;;1.90;;
63218;SDS011;49320;52.512;13.448;2022-12-29T16:30:21;2.92;;;2.05;;
63218;SDS011;49320;52.512;13.448;2022-12-29T16:33:00;3.25;;;2.50;;
63218;SDS011;49320;52.512;13.448;2022-12-29T16:35:44;3.78;;;2.65;;
63218;SDS011;49320;52.512;13.448;2022-12-29T16:38:16;3.22;;;2.13;;
63218;SDS011;49320;52.512;13.448;2022-12-29T16:40:55;3.33;;;2.15;;
63218;SDS011;49320;52.512;13.448;2022-12-29T16:43:33;3.53;;;2.10;;
63218;SDS011;49320;52.512;13.448;2022-12-29T16:48:55;2.47;;;1.73;;
63218;SDS011;49320;52.512;13.448;2022-12-29T16:51:30;3.80;;;1.90;;
63218;SDS011;49320;52.512;13.448;2022-12-29T16:54:01;3.65;;;2.20;;
63218;SDS011;49320;52.512;13.448;2022-12-29T16:56:30;3.35;;;2.38;;
63218;SDS011;49320;52.512;13.448;2022-12-29T16:59:04;2.42;;;1.80;;
63218;SDS011;49320;52.512;13.448;2022-12-29T17:01:44;3.75;;;2.22;;
63218;SDS011;49320;52.512;13.448;2022-12-29T17:04:11;3.83;;;2.03;;
63218;SDS011;49320;52.512;13.448;2022-12-29T17:06:40;2.78;;;2.10;;
63218;SDS011;49320;52.512;13.448;2022-12-29T17:12:03;3.63;;;1.90;;
63218;SDS011;49320;52.512;13.448;2022-12-29T17:14:39;3.78;;;2.10;;
63218;SDS011;49320;52.512;13.448;2022-12-29T17:17:12;3.10;;;1.95;;
63218;SDS011;49320;52.512;13.448;2022-12-29T17:19:46;3.95;;;2.47;;
63218;SDS011;49320;52.512;13.448;2022-12-29T17:22:23;4.20;;;2.88;;
63218;SDS011;49320;52.512;13.448;2022-12-29T17:24:54;4.00;;;2.38;;
63218;SDS011;49320;52.512;13.448;2022-12-29T17:27:26;4.13;;;2.70;;
63218;SDS011;49320;52.512;13.448;2022-12-29T17:30:04;4.55;;;2.90;;
63218;SDS011;49320;52.512;13.448;2022-12-29T17:32:45;4.35;;;2.60;;
63218;SDS011;49320;52.512;13.448;2022-12-29T17:35:20;4.82;;;3.15;;
63218;SDS011;49320;52.512;13.448;2022-12-29T17:37:48;3.80;;;2.45;;
63218;SDS011;49320;52.512;13.448;2022-12-29T17:40:17;3.88;;;2.70;;
63218;SDS011;49320;52.512;13.448;2022-12-29T17:42:54;3.97;;;1.73;;
63218;SDS011;49320;52.512;13.448;2022-12-29T17:45:24;4.55;;;2.10;;